sensor_id;sensor_type;location;lat;lon;timestamp;temperature;humidity
8093;DHT22;4089;52.420;13.334;2023-05-21T00:00:24;16.40;99.90
8093;DHT22;4089;52.420;13.334;2023-05-21T00:02:50;16.40;99.90
8093;DHT22;4089;52.420;13.334;2023-05-21T00:05:17;16.30;99.90
8093;DHT22;4089;52.420;13.334;2023-05-21T00:07:44;16.30;99.90
8093;DHT22;4089;52.420;13.334;2023-05-21T00:10:12;16.30;99.90
8093;DHT22;4089;52.420;13.334;2023-05-21T00:12:39;16.20;99.90
8093;DHT22;4089;52.420;13.334;2023-05-21T00:15:08;16.20;99.90
8093;DHT22;4089;52.420;13.334;2023-05-21T00:17:35;16.20;99.90
8093;DHT22;4089;52.420;13.334;2023-05-21T00:20:05;16.10;99.90
8093;DHT22;4089;52.420;13.334;2023-05-21T00:22:32;16.10;99.90
8093;DHT22;4089;52.420;13.334;2023-05-21T00:24:59;16.00;99.90
8093;DHT22;4089;52.420;13.334;2023-05-21T00:27:26;16.00;99.90
8093;DHT22;4089;52.420;13.334;2023-05-21T00:29:53;15.90;99.90
8093;DHT22;4089;52.420;13.334;2023-05-21T00:32:20;15.90;99.90
8093;DHT22;4089;52.420;13.334;2023-05-21T00:34:47;15.90;99.90
8093;DHT22;4089;52.420;13.334;2023-05-21T00:37:13;15.80;99.90
8093;DHT22;4089;52.420;13.334;2023-05-21T00:39:41;15.80;99.90
8093;DHT22;4089;52.420;13.334;2023-05-21T00:42:08;15.80;99.90
8093;DHT22;4089;52.420;13.334;2023-05-21T00:44:34;15.70;99.90
8093;DHT22;4089;52.420;13.334;2023-05-21T00:47:02;15.70;99.90
8093;DHT22;4089;52.420;13.334;2023-05-21T00:49:29;15.70;99.90
8093;DHT22;4089;52.420;13.334;2023-05-21T00:51:57;15.60;99.90
8093;DHT22;4089;52.420;13.334;2023-05-21T00:54:27;15.60;99.90
8093;DHT22;4089;52.420;13.334;2023-05-21T00:56:54;15.50;99.90
8093;DHT22;4089;52.420;13.334;2023-05-21T00:59:23;15.50;99.90
8093;DHT22;4089;52.420;13.334;2023-05-21T01:01:51;15.50;99.90
8093;DHT22;4089;52.420;13.334;2023-05-21T01:04:22;15.40;99.90
8093;DHT22;4089;52.420;13.334;2023-05-21T01:06:49;15.40;99.90
8093;DHT22;4089;52.420;13.334;2023-05-21T01:09:16;15.40;99.90
8093;DHT22;4089;52.420;13.334;2023-05-21T01:11:45;15.30;99.90
8093;DHT22;4089;52.420;13.334;2023-05-21T01:14:15;15.30;99.90
8093;DHT22;4089;52.420;13.334;2023-05-21T01:16:43;15.30;99.90
8093;DHT22;4089;52.420;13.334;2023-05-21T01:19:18;15.20;99.90
8093;DHT22;4089;52.420;13.334;2023-05-21T01:21:49;15.20;99.90
8093;DHT22;4089;52.420;13.334;2023-05-21T01:24:17;15.20;99.90
8093;DHT22;4089;52.420;13.334;2023-05-21T01:26:44;15.10;99.90
8093;DHT22;4089;52.420;13.334;2023-05-21T01:29:12;15.10;99.90
8093;DHT22;4089;52.420;13.334;2023-05-21T01:34:11;15.10;99.90
8093;DHT22;4089;52.420;13.334;2023-05-21T01:36:56;15.00;99.90
8093;DHT22;4089;52.420;13.334;2023-05-21T01:39:30;15.00;99.90
8093;DHT22;4089;52.420;13.334;2023-05-21T01:41:58;15.00;99.90
8093;DHT22;4089;52.420;13.334;2023-05-21T01:44:26;14.90;99.90
8093;DHT22;4089;52.420;13.334;2023-05-21T01:46:55;14.90;99.90
8093;DHT22;4089;52.420;13.334;2023-05-21T01:49:24;14.90;99.90
8093;DHT22;4089;52.420;13.334;2023-05-21T01:51:51;14.90;99.90
8093;DHT22;4089;52.420;13.334;2023-05-21T01:54:18;14.80;99.90
8093;DHT22;4089;52.420;13.334;2023-05-21T01:56:44;14.80;99.90
8093;DHT22;4089;52.420;13.334;2023-05-21T01:59:13;14.80;99.90
8093;DHT22;4089;52.420;13.334;2023-05-21T02:01:40;14.80;99.90
8093;DHT22;4089;52.420;13.334;2023-05-21T02:04:07;14.70;99.90
8093;DHT22;4089;52.420;13.334;2023-05-21T02:06:34;14.70;99.90
8093;DHT22;4089;52.420;13.334;2023-05-21T02:09:02;14.70;99.90
8093;DHT22;4089;52.420;13.334;2023-05-21T02:11:29;14.60;99.90
8093;DHT22;4089;52.420;13.334;2023-05-21T02:13:56;14.60;99.90
8093;DHT22;4089;52.420;13.334;2023-05-21T02:16:24;14.60;99.90
8093;DHT22;4089;52.420;13.334;2023-05-21T02:18:51;14.60;99.90
8093;DHT22;4089;52.420;13.334;2023-05-21T02:21:19;14.50;99.90
8093;DHT22;4089;52.420;13.334;2023-05-21T02:23:46;14.50;99.90
8093;DHT22;4089;52.420;13.334;2023-05-21T02:26:13;14.50;99.90
8093;DHT22;4089;52.420;13.334;2023-05-21T02:28:40;14.50;99.90
8093;DHT22;4089;52.420;13.334;2023-05-21T02:31:07;14.40;99.90
8093;DHT22;4089;52.420;13.334;2023-05-21T02:33:33;14.40;99.90
8093;DHT22;4089;52.420;13.334;2023-05-21T02:36:00;14.40;99.90
8093;DHT22;4089;52.420;13.334;2023-05-21T02:38:27;14.40;99.90
8093;DHT22;4089;52.420;13.334;2023-05-21T02:40:54;14.40;99.90
8093;DHT22;4089;52.420;13.334;2023-05-21T02:43:21;14.40;99.90
8093;DHT22;4089;52.420;13.334;2023-05-21T02:45:48;14.30;99.90
8093;DHT22;4089;52.420;13.334;2023-05-21T02:48:16;14.30;99.90
8093;DHT22;4089;52.420;13.334;2023-05-21T02:50:43;14.30;99.90
8093;DHT22;4089;52.420;13.334;2023-05-21T02:53:10;14.30;99.90
8093;DHT22;4089;52.420;13.334;2023-05-21T02:55:37;14.30;99.90
8093;DHT22;4089;52.420;13.334;2023-05-21T02:58:05;14.30;99.90
8093;DHT22;4089;52.420;13.334;2023-05-21T03:00:31;14.30;99.90
8093;DHT22;4089;52.420;13.334;2023-05-21T03:02:58;14.30;99.90
8093;DHT22;4089;52.420;13.334;2023-05-21T03:05:25;14.30;99.90
8093;DHT22;4089;52.420;13.334;2023-05-21T03:07:52;14.30;99.90
8093;DHT22;4089;52.420;13.334;2023-05-21T03:10:19;14.30;99.90
8093;DHT22;4089;52.420;13.334;2023-05-21T03:12:46;14.30;99.90
8093;DHT22;4089;52.420;13.334;2023-05-21T03:15:13;14.30;99.90
8093;DHT22;4089;52.420;13.334;2023-05-21T03:17:40;14.30;99.90
8093;DHT22;4089;52.420;13.334;2023-05-21T03:20:10;14.20;99.90
8093;DHT22;4089;52.420;13.334;2023-05-21T03:22:43;14.30;99.90
8093;DHT22;4089;52.420;13.334;2023-05-21T03:25:10;14.30;99.90
8093;DHT22;4089;52.420;13.334;2023-05-21T03:27:38;14.30;99.90
8093;DHT22;4089;52.420;13.334;2023-05-21T03:30:05;14.30;99.90
8093;DHT22;4089;52.420;13.334;2023-05-21T03:32:32;14.30;99.90
8093;DHT22;4089;52.420;13.334;2023-05-21T03:34:59;14.30;99.90
8093;DHT22;4089;52.420;13.334;2023-05-21T03:37:26;14.30;99.90
8093;DHT22;4089;52.420;13.334;2023-05-21T03:39:53;14.30;99.90
8093;DHT22;4089;52.420;13.334;2023-05-21T03:42:19;14.30;99.90
8093;DHT22;4089;52.420;13.334;2023-05-21T03:44:46;14.40;99.90
8093;DHT22;4089;52.420;13.334;2023-05-21T03:47:13;14.40;99.90
8093;DHT22;4089;52.420;13.334;2023-05-21T03:49:40;14.40;99.90
8093;DHT22;4089;52.420;13.334;2023-05-21T03:52:07;14.50;99.90
8093;DHT22;4089;52.420;13.334;2023-05-21T03:54:33;14.50;99.90
8093;DHT22;4089;52.420;13.334;2023-05-21T03:57:01;14.50;99.90
8093;DHT22;4089;52.420;13.334;2023-05-21T03:59:28;14.60;99.90
8093;DHT22;4089;52.420;13.334;2023-05-21T04:01:54;14.60;99.90
8093;DHT22;4089;52.420;13.334;2023-05-21T04:04:21;14.60;99.90
8093;DHT22;4089;52.420;13.334;2023-05-21T04:06:50;14.70;99.90
8093;DHT22;4089;52.420;13.334;2023-05-21T04:09:17;14.70;99.90
8093;DHT22;4089;52.420;13.334;2023-05-21T04:11:43;14.70;99.90
8093;DHT22;4089;52.420;13.334;2023-05-21T04:14:10;14.80;99.90
8093;DHT22;4089;52.420;13.334;2023-05-21T04:16:37;14.80;99.90
8093;DHT22;4089;52.420;13.334;2023-05-21T04:19:05;14.90;99.90
8093;DHT22;4089;52.420;13.334;2023-05-21T04:21:32;15.00;99.90
8093;DHT22;4089;52.420;13.334;2023-05-21T04:23:59;15.00;99.90
8093;DHT22;4089;52.420;13.334;2023-05-21T04:26:26;15.10;99.90
8093;DHT22;4089;52.420;13.334;2023-05-21T04:28:53;15.20;99.90
8093;DHT22;4089;52.420;13.334;2023-05-21T04:31:20;15.20;99.90
8093;DHT22;4089;52.420;13.334;2023-05-21T04:33:48;15.30;99.90
8093;DHT22;4089;52.420;13.334;2023-05-21T04:36:16;15.40;99.90
8093;DHT22;4089;52.420;13.334;2023-05-21T04:38:43;15.50;99.90
8093;DHT22;4089;52.420;13.334;2023-05-21T04:41:09;15.60;99.90
8093;DHT22;4089;52.420;13.334;2023-05-21T04:43:36;15.70;99.90
8093;DHT22;4089;52.420;13.334;2023-05-21T04:46:03;15.80;99.90
8093;DHT22;4089;52.420;13.334;2023-05-21T04:48:31;15.90;99.90
8093;DHT22;4089;52.420;13.334;2023-05-21T04:50:58;16.00;99.90
8093;DHT22;4089;52.420;13.334;2023-05-21T04:53:25;16.10;99.90
8093;DHT22;4089;52.420;13.334;2023-05-21T04:55:52;16.20;99.90
8093;DHT22;4089;52.420;13.334;2023-05-21T04:58:19;16.30;99.90
8093;DHT22;4089;52.420;13.334;2023-05-21T05:00:46;16.40;99.90
8093;DHT22;4089;52.420;13.334;2023-05-21T05:03:13;16.50;99.90
8093;DHT22;4089;52.420;13.334;2023-05-21T05:05:40;16.60;99.90
8093;DHT22;4089;52.420;13.334;2023-05-21T05:08:07;16.70;99.90
8093;DHT22;4089;52.420;13.334;2023-05-21T05:10:34;16.80;99.90
8093;DHT22;4089;52.420;13.334;2023-05-21T05:13:01;16.80;99.90
8093;DHT22;4089;52.420;13.334;2023-05-21T05:15:28;16.90;99.90
8093;DHT22;4089;52.420;13.334;2023-05-21T05:17:55;17.00;99.90
8093;DHT22;4089;52.420;13.334;2023-05-21T05:20:22;17.10;99.90
8093;DHT22;4089;52.420;13.334;2023-05-21T05:22:49;17.10;99.90
8093;DHT22;4089;52.420;13.334;2023-05-21T05:25:16;17.20;99.90
8093;DHT22;4089;52.420;13.334;2023-05-21T05:27:43;17.30;99.90
8093;DHT22;4089;52.420;13.334;2023-05-21T05:30:10;17.40;99.90
8093;DHT22;4089;52.420;13.334;2023-05-21T05:32:37;17.50;99.90
8093;DHT22;4089;52.420;13.334;2023-05-21T05:35:04;17.60;99.90
8093;DHT22;4089;52.420;13.334;2023-05-21T05:37:31;17.60;99.90
8093;DHT22;4089;52.420;13.334;2023-05-21T05:39:59;17.60;99.90
8093;DHT22;4089;52.420;13.334;2023-05-21T05:42:26;17.70;99.90
8093;DHT22;4089;52.420;13.334;2023-05-21T05:44:52;17.80;99.90
8093;DHT22;4089;52.420;13.334;2023-05-21T05:47:19;18.00;99.90
8093;DHT22;4089;52.420;13.334;2023-05-21T05:49:47;18.10;99.90
8093;DHT22;4089;52.420;13.334;2023-05-21T05:52:14;18.10;99.90
8093;DHT22;4089;52.420;13.334;2023-05-21T05:54:41;18.20;99.90
8093;DHT22;4089;52.420;13.334;2023-05-21T05:57:08;18.30;99.90
8093;DHT22;4089;52.420;13.334;2023-05-21T05:59:35;18.40;99.90
8093;DHT22;4089;52.420;13.334;2023-05-21T06:02:01;18.40;99.90
8093;DHT22;4089;52.420;13.334;2023-05-21T06:04:28;18.40;99.90
8093;DHT22;4089;52.420;13.334;2023-05-21T06:06:56;18.40;99.90
8093;DHT22;4089;52.420;13.334;2023-05-21T06:09:23;18.40;99.90
8093;DHT22;4089;52.420;13.334;2023-05-21T06:11:50;18.40;99.90
8093;DHT22;4089;52.420;13.334;2023-05-21T06:14:17;18.40;99.90
8093;DHT22;4089;52.420;13.334;2023-05-21T06:16:44;18.40;99.90
8093;DHT22;4089;52.420;13.334;2023-05-21T06:19:11;18.40;99.90
8093;DHT22;4089;52.420;13.334;2023-05-21T06:21:38;18.40;99.90
8093;DHT22;4089;52.420;13.334;2023-05-21T06:24:05;18.40;99.90
8093;DHT22;4089;52.420;13.334;2023-05-21T06:26:32;18.40;99.90
8093;DHT22;4089;52.420;13.334;2023-05-21T06:28:59;18.50;99.90
8093;DHT22;4089;52.420;13.334;2023-05-21T06:31:26;18.60;99.90
8093;DHT22;4089;52.420;13.334;2023-05-21T06:33:53;18.60;99.90
8093;DHT22;4089;52.420;13.334;2023-05-21T06:36:20;18.50;99.90
8093;DHT22;4089;52.420;13.334;2023-05-21T06:38:47;18.60;99.90
8093;DHT22;4089;52.420;13.334;2023-05-21T06:41:14;18.60;99.90
8093;DHT22;4089;52.420;13.334;2023-05-21T06:43:41;18.70;99.90
8093;DHT22;4089;52.420;13.334;2023-05-21T06:46:08;18.80;99.90
8093;DHT22;4089;52.420;13.334;2023-05-21T06:48:35;18.80;99.90
8093;DHT22;4089;52.420;13.334;2023-05-21T06:51:02;18.80;99.90
8093;DHT22;4089;52.420;13.334;2023-05-21T06:53:28;18.90;99.90
8093;DHT22;4089;52.420;13.334;2023-05-21T06:55:55;19.00;99.90
8093;DHT22;4089;52.420;13.334;2023-05-21T06:58:22;19.10;99.90
8093;DHT22;4089;52.420;13.334;2023-05-21T07:00:49;19.30;99.90
8093;DHT22;4089;52.420;13.334;2023-05-21T07:03:16;19.50;99.90
8093;DHT22;4089;52.420;13.334;2023-05-21T07:05:43;19.70;99.90
8093;DHT22;4089;52.420;13.334;2023-05-21T07:08:10;19.80;99.90
8093;DHT22;4089;52.420;13.334;2023-05-21T07:10:37;19.90;99.90
8093;DHT22;4089;52.420;13.334;2023-05-21T07:13:04;20.00;99.90
8093;DHT22;4089;52.420;13.334;2023-05-21T07:15:31;20.10;99.90
8093;DHT22;4089;52.420;13.334;2023-05-21T07:17:58;20.20;99.90
8093;DHT22;4089;52.420;13.334;2023-05-21T07:20:25;20.30;99.90
8093;DHT22;4089;52.420;13.334;2023-05-21T07:22:52;20.40;99.90
8093;DHT22;4089;52.420;13.334;2023-05-21T07:25:18;20.50;99.90
8093;DHT22;4089;52.420;13.334;2023-05-21T07:27:45;20.60;99.90
8093;DHT22;4089;52.420;13.334;2023-05-21T07:30:13;20.80;99.90
8093;DHT22;4089;52.420;13.334;2023-05-21T07:32:40;20.80;99.90
8093;DHT22;4089;52.420;13.334;2023-05-21T07:35:07;20.90;99.90
8093;DHT22;4089;52.420;13.334;2023-05-21T07:37:34;21.10;99.90
8093;DHT22;4089;52.420;13.334;2023-05-21T07:40:01;21.20;99.90
8093;DHT22;4089;52.420;13.334;2023-05-21T07:42:29;21.30;99.90
8093;DHT22;4089;52.420;13.334;2023-05-21T07:44:56;21.30;99.90
8093;DHT22;4089;52.420;13.334;2023-05-21T07:47:23;21.30;99.90
8093;DHT22;4089;52.420;13.334;2023-05-21T07:49:50;21.60;99.90
8093;DHT22;4089;52.420;13.334;2023-05-21T07:52:17;21.80;99.90
8093;DHT22;4089;52.420;13.334;2023-05-21T07:54:44;21.90;99.90
8093;DHT22;4089;52.420;13.334;2023-05-21T07:57:10;22.00;99.90
8093;DHT22;4089;52.420;13.334;2023-05-21T07:59:37;22.10;99.90
8093;DHT22;4089;52.420;13.334;2023-05-21T08:02:04;22.20;99.90
8093;DHT22;4089;52.420;13.334;2023-05-21T08:04:31;22.20;99.90
8093;DHT22;4089;52.420;13.334;2023-05-21T08:06:58;22.30;99.90
8093;DHT22;4089;52.420;13.334;2023-05-21T08:09:25;22.30;99.90
8093;DHT22;4089;52.420;13.334;2023-05-21T08:11:51;22.50;99.90
8093;DHT22;4089;52.420;13.334;2023-05-21T08:14:18;22.50;99.90
8093;DHT22;4089;52.420;13.334;2023-05-21T08:16:45;22.50;99.90
8093;DHT22;4089;52.420;13.334;2023-05-21T08:19:12;22.50;99.90
8093;DHT22;4089;52.420;13.334;2023-05-21T08:21:39;22.60;99.90
8093;DHT22;4089;52.420;13.334;2023-05-21T08:24:06;22.70;99.90
8093;DHT22;4089;52.420;13.334;2023-05-21T08:26:33;22.60;99.90
8093;DHT22;4089;52.420;13.334;2023-05-21T08:28:59;22.70;99.90
8093;DHT22;4089;52.420;13.334;2023-05-21T08:31:27;22.80;99.90
8093;DHT22;4089;52.420;13.334;2023-05-21T08:33:54;22.80;99.90
8093;DHT22;4089;52.420;13.334;2023-05-21T08:36:23;22.90;99.90
8093;DHT22;4089;52.420;13.334;2023-05-21T08:38:50;23.20;99.90
8093;DHT22;4089;52.420;13.334;2023-05-21T08:41:17;23.30;99.90
8093;DHT22;4089;52.420;13.334;2023-05-21T08:43:47;23.50;99.90
8093;DHT22;4089;52.420;13.334;2023-05-21T08:46:22;23.50;99.90
8093;DHT22;4089;52.420;13.334;2023-05-21T08:48:50;23.60;99.90
8093;DHT22;4089;52.420;13.334;2023-05-21T08:51:22;23.70;99.90
8093;DHT22;4089;52.420;13.334;2023-05-21T08:53:50;23.70;99.90
8093;DHT22;4089;52.420;13.334;2023-05-21T08:56:17;23.90;99.90
8093;DHT22;4089;52.420;13.334;2023-05-21T08:58:48;24.10;99.90
8093;DHT22;4089;52.420;13.334;2023-05-21T09:01:14;24.30;99.90
8093;DHT22;4089;52.420;13.334;2023-05-21T09:03:46;24.50;99.90
8093;DHT22;4089;52.420;13.334;2023-05-21T09:06:13;24.40;99.90
8093;DHT22;4089;52.420;13.334;2023-05-21T09:08:44;24.50;99.90
8093;DHT22;4089;52.420;13.334;2023-05-21T09:11:15;24.50;99.90
8093;DHT22;4089;52.420;13.334;2023-05-21T09:13:42;24.50;99.90
8093;DHT22;4089;52.420;13.334;2023-05-21T09:16:10;24.60;99.90
8093;DHT22;4089;52.420;13.334;2023-05-21T09:18:37;24.90;99.90
8093;DHT22;4089;52.420;13.334;2023-05-21T09:21:23;24.90;99.90
8093;DHT22;4089;52.420;13.334;2023-05-21T09:23:56;24.90;99.90
8093;DHT22;4089;52.420;13.334;2023-05-21T09:26:24;24.90;99.90
8093;DHT22;4089;52.420;13.334;2023-05-21T09:28:56;25.00;99.90
8093;DHT22;4089;52.420;13.334;2023-05-21T09:31:23;25.10;99.90
8093;DHT22;4089;52.420;13.334;2023-05-21T09:33:52;25.10;99.90
8093;DHT22;4089;52.420;13.334;2023-05-21T09:36:19;25.00;99.90
8093;DHT22;4089;52.420;13.334;2023-05-21T09:38:50;25.10;99.90
8093;DHT22;4089;52.420;13.334;2023-05-21T09:41:18;25.00;99.90
8093;DHT22;4089;52.420;13.334;2023-05-21T09:43:48;25.10;99.90
8093;DHT22;4089;52.420;13.334;2023-05-21T09:46:15;25.20;99.90
8093;DHT22;4089;52.420;13.334;2023-05-21T09:48:46;25.20;99.90
8093;DHT22;4089;52.420;13.334;2023-05-21T09:51:17;25.10;99.90
8093;DHT22;4089;52.420;13.334;2023-05-21T09:53:57;25.10;99.90
8093;DHT22;4089;52.420;13.334;2023-05-21T09:56:28;25.30;99.90
8093;DHT22;4089;52.420;13.334;2023-05-21T09:59:00;25.40;99.10
8093;DHT22;4089;52.420;13.334;2023-05-21T10:01:30;25.70;99.90
8093;DHT22;4089;52.420;13.334;2023-05-21T10:04:01;25.90;99.30
8093;DHT22;4089;52.420;13.334;2023-05-21T10:06:29;26.00;99.60
8093;DHT22;4089;52.420;13.334;2023-05-21T10:08:59;26.00;98.30
8093;DHT22;4089;52.420;13.334;2023-05-21T10:11:31;26.10;98.30
8093;DHT22;4089;52.420;13.334;2023-05-21T10:14:06;26.30;99.30
8093;DHT22;4089;52.420;13.334;2023-05-21T10:16:35;26.50;96.40
8093;DHT22;4089;52.420;13.334;2023-05-21T10:19:03;26.70;94.20
8093;DHT22;4089;52.420;13.334;2023-05-21T10:21:37;26.80;93.60
8093;DHT22;4089;52.420;13.334;2023-05-21T10:24:07;26.90;92.90
8093;DHT22;4089;52.420;13.334;2023-05-21T10:26:35;26.90;93.50
8093;DHT22;4089;52.420;13.334;2023-05-21T10:29:02;27.00;93.40
8093;DHT22;4089;52.420;13.334;2023-05-21T10:31:29;27.30;94.80
8093;DHT22;4089;52.420;13.334;2023-05-21T10:33:56;27.30;91.00
8093;DHT22;4089;52.420;13.334;2023-05-21T10:36:23;27.30;90.80
8093;DHT22;4089;52.420;13.334;2023-05-21T10:38:52;27.40;90.40
8093;DHT22;4089;52.420;13.334;2023-05-21T10:41:20;27.60;89.90
8093;DHT22;4089;52.420;13.334;2023-05-21T10:44:14;27.60;86.30
8093;DHT22;4089;52.420;13.334;2023-05-21T10:58:26;27.40;80.70
8093;DHT22;4089;52.420;13.334;2023-05-21T11:00:56;27.30;80.80
8093;DHT22;4089;52.420;13.334;2023-05-21T11:03:25;27.30;77.00
8093;DHT22;4089;52.420;13.334;2023-05-21T11:05:54;27.00;76.60
8093;DHT22;4089;52.420;13.334;2023-05-21T11:08:24;27.00;79.30
8093;DHT22;4089;52.420;13.334;2023-05-21T11:10:52;27.10;80.30
8093;DHT22;4089;52.420;13.334;2023-05-21T11:13:20;27.00;76.40
8093;DHT22;4089;52.420;13.334;2023-05-21T11:21:13;27.10;74.10
8093;DHT22;4089;52.420;13.334;2023-05-21T11:24:00;27.00;71.70
8093;DHT22;4089;52.420;13.334;2023-05-21T11:26:57;27.20;74.70
8093;DHT22;4089;52.420;13.334;2023-05-21T11:29:18;27.40;75.00
8093;DHT22;4089;52.420;13.334;2023-05-21T11:31:57;27.60;75.90
8093;DHT22;4089;52.420;13.334;2023-05-21T11:34:24;27.70;75.30
8093;DHT22;4089;52.420;13.334;2023-05-21T11:39:49;27.90;72.80
8093;DHT22;4089;52.420;13.334;2023-05-21T11:42:33;28.10;72.80
8093;DHT22;4089;52.420;13.334;2023-05-21T11:45:04;28.20;72.50
8093;DHT22;4089;52.420;13.334;2023-05-21T11:47:31;28.20;71.10
8093;DHT22;4089;52.420;13.334;2023-05-21T11:50:00;28.20;70.00
8093;DHT22;4089;52.420;13.334;2023-05-21T11:52:29;28.20;71.20
8093;DHT22;4089;52.420;13.334;2023-05-21T11:54:56;28.10;71.50
8093;DHT22;4089;52.420;13.334;2023-05-21T11:57:26;28.30;70.70
8093;DHT22;4089;52.420;13.334;2023-05-21T11:59:57;28.50;70.30
8093;DHT22;4089;52.420;13.334;2023-05-21T12:02:26;28.60;68.00
8093;DHT22;4089;52.420;13.334;2023-05-21T12:04:54;28.50;65.40
8093;DHT22;4089;52.420;13.334;2023-05-21T12:07:27;28.30;68.10
8093;DHT22;4089;52.420;13.334;2023-05-21T12:09:57;28.10;66.30
8093;DHT22;4089;52.420;13.334;2023-05-21T12:12:25;28.10;67.20
8093;DHT22;4089;52.420;13.334;2023-05-21T12:15:01;28.20;66.20
8093;DHT22;4089;52.420;13.334;2023-05-21T12:17:28;28.10;66.60
8093;DHT22;4089;52.420;13.334;2023-05-21T12:19:57;28.20;65.30
8093;DHT22;4089;52.420;13.334;2023-05-21T12:22:24;28.20;69.50
8093;DHT22;4089;52.420;13.334;2023-05-21T12:24:53;28.20;66.90
8093;DHT22;4089;52.420;13.334;2023-05-21T12:27:20;28.10;65.30
8093;DHT22;4089;52.420;13.334;2023-05-21T12:29:51;28.30;65.70
8093;DHT22;4089;52.420;13.334;2023-05-21T12:32:19;28.40;68.50
8093;DHT22;4089;52.420;13.334;2023-05-21T12:34:50;28.50;66.10
8093;DHT22;4089;52.420;13.334;2023-05-21T12:37:23;28.60;64.30
8093;DHT22;4089;52.420;13.334;2023-05-21T12:39:56;28.30;64.00
8093;DHT22;4089;52.420;13.334;2023-05-21T12:42:24;28.40;66.70
8093;DHT22;4089;52.420;13.334;2023-05-21T12:44:56;28.50;64.60
8093;DHT22;4089;52.420;13.334;2023-05-21T12:47:24;28.70;66.00
8093;DHT22;4089;52.420;13.334;2023-05-21T12:49:59;28.90;63.40
8093;DHT22;4089;52.420;13.334;2023-05-21T12:52:27;29.00;63.50
8093;DHT22;4089;52.420;13.334;2023-05-21T12:54:55;29.10;62.00
8093;DHT22;4089;52.420;13.334;2023-05-21T12:57:24;29.10;59.90
8093;DHT22;4089;52.420;13.334;2023-05-21T13:04:47;28.80;62.50
8093;DHT22;4089;52.420;13.334;2023-05-21T13:07:15;28.80;61.00
8093;DHT22;4089;52.420;13.334;2023-05-21T13:09:42;28.90;62.20
8093;DHT22;4089;52.420;13.334;2023-05-21T13:12:11;28.90;60.00
8093;DHT22;4089;52.420;13.334;2023-05-21T13:14:38;28.90;60.10
8093;DHT22;4089;52.420;13.334;2023-05-21T13:17:05;28.80;62.70
8093;DHT22;4089;52.420;13.334;2023-05-21T13:19:32;28.60;60.00
8093;DHT22;4089;52.420;13.334;2023-05-21T13:21:59;28.80;62.10
8093;DHT22;4089;52.420;13.334;2023-05-21T13:24:27;28.90;59.40
8093;DHT22;4089;52.420;13.334;2023-05-21T13:26:53;29.10;59.00
8093;DHT22;4089;52.420;13.334;2023-05-21T13:29:20;29.30;64.70
8093;DHT22;4089;52.420;13.334;2023-05-21T13:31:47;29.40;58.20
8093;DHT22;4089;52.420;13.334;2023-05-21T13:34:14;29.30;56.70
8093;DHT22;4089;52.420;13.334;2023-05-21T13:36:40;29.50;57.10
8093;DHT22;4089;52.420;13.334;2023-05-21T13:39:07;29.30;55.10
8093;DHT22;4089;52.420;13.334;2023-05-21T13:41:34;29.20;55.30
8093;DHT22;4089;52.420;13.334;2023-05-21T13:44:01;29.40;55.10
8093;DHT22;4089;52.420;13.334;2023-05-21T13:46:28;29.60;55.60
8093;DHT22;4089;52.420;13.334;2023-05-21T13:48:55;29.90;54.20
8093;DHT22;4089;52.420;13.334;2023-05-21T13:51:22;30.40;55.00
8093;DHT22;4089;52.420;13.334;2023-05-21T13:54:04;30.40;53.30
8093;DHT22;4089;52.420;13.334;2023-05-21T13:56:31;30.10;52.00
8093;DHT22;4089;52.420;13.334;2023-05-21T13:59:00;29.70;53.00
8093;DHT22;4089;52.420;13.334;2023-05-21T14:01:27;29.40;51.80
8093;DHT22;4089;52.420;13.334;2023-05-21T14:03:54;29.20;52.60
8093;DHT22;4089;52.420;13.334;2023-05-21T14:06:21;28.80;52.40
8093;DHT22;4089;52.420;13.334;2023-05-21T14:08:48;29.10;54.20
8093;DHT22;4089;52.420;13.334;2023-05-21T14:11:14;29.50;53.00
8093;DHT22;4089;52.420;13.334;2023-05-21T14:13:41;29.60;52.10
8093;DHT22;4089;52.420;13.334;2023-05-21T14:16:08;29.70;54.30
8093;DHT22;4089;52.420;13.334;2023-05-21T14:18:35;29.80;53.00
8093;DHT22;4089;52.420;13.334;2023-05-21T14:21:02;29.70;52.80
8093;DHT22;4089;52.420;13.334;2023-05-21T14:23:29;29.70;53.50
8093;DHT22;4089;52.420;13.334;2023-05-21T14:25:55;29.50;53.60
8093;DHT22;4089;52.420;13.334;2023-05-21T14:28:22;29.20;53.00
8093;DHT22;4089;52.420;13.334;2023-05-21T14:30:49;29.20;53.40
8093;DHT22;4089;52.420;13.334;2023-05-21T14:33:16;29.20;53.40
8093;DHT22;4089;52.420;13.334;2023-05-21T14:35:43;29.10;53.70
8093;DHT22;4089;52.420;13.334;2023-05-21T14:38:10;29.20;54.90
8093;DHT22;4089;52.420;13.334;2023-05-21T14:40:36;29.20;55.10
8093;DHT22;4089;52.420;13.334;2023-05-21T14:43:03;29.00;53.70
8093;DHT22;4089;52.420;13.334;2023-05-21T14:45:31;28.80;53.70
8093;DHT22;4089;52.420;13.334;2023-05-21T14:48:01;28.60;53.20
8093;DHT22;4089;52.420;13.334;2023-05-21T14:50:34;28.50;53.20
8093;DHT22;4089;52.420;13.334;2023-05-21T14:53:08;28.50;54.80
8093;DHT22;4089;52.420;13.334;2023-05-21T14:55:36;28.40;54.60
8093;DHT22;4089;52.420;13.334;2023-05-21T14:58:04;28.40;54.40
8093;DHT22;4089;52.420;13.334;2023-05-21T15:00:32;28.30;54.10
8093;DHT22;4089;52.420;13.334;2023-05-21T15:02:59;28.30;54.80
8093;DHT22;4089;52.420;13.334;2023-05-21T15:05:27;28.40;55.00
8093;DHT22;4089;52.420;13.334;2023-05-21T15:07:55;28.50;56.80
8093;DHT22;4089;52.420;13.334;2023-05-21T15:10:24;28.50;53.80
8093;DHT22;4089;52.420;13.334;2023-05-21T15:12:51;28.50;54.60
8093;DHT22;4089;52.420;13.334;2023-05-21T15:15:18;28.40;54.20
8093;DHT22;4089;52.420;13.334;2023-05-21T15:17:49;28.50;54.70
8093;DHT22;4089;52.420;13.334;2023-05-21T15:20:16;28.50;54.90
8093;DHT22;4089;52.420;13.334;2023-05-21T15:22:45;28.40;54.90
8093;DHT22;4089;52.420;13.334;2023-05-21T15:25:12;28.30;54.50
8093;DHT22;4089;52.420;13.334;2023-05-21T15:27:38;28.10;55.10
8093;DHT22;4089;52.420;13.334;2023-05-21T15:30:06;27.90;53.50
8093;DHT22;4089;52.420;13.334;2023-05-21T15:32:33;27.90;54.50
8093;DHT22;4089;52.420;13.334;2023-05-21T15:34:59;28.00;55.20
8093;DHT22;4089;52.420;13.334;2023-05-21T15:37:27;27.80;54.00
8093;DHT22;4089;52.420;13.334;2023-05-21T15:39:57;27.90;54.80
8093;DHT22;4089;52.420;13.334;2023-05-21T15:42:24;27.80;54.80
8093;DHT22;4089;52.420;13.334;2023-05-21T15:44:51;27.70;54.50
8093;DHT22;4089;52.420;13.334;2023-05-21T15:47:18;27.60;55.30
8093;DHT22;4089;52.420;13.334;2023-05-21T15:49:45;27.50;55.40
8093;DHT22;4089;52.420;13.334;2023-05-21T15:52:12;27.50;55.60
8093;DHT22;4089;52.420;13.334;2023-05-21T15:54:39;27.60;55.90
8093;DHT22;4089;52.420;13.334;2023-05-21T15:57:06;27.60;55.90
8093;DHT22;4089;52.420;13.334;2023-05-21T15:59:33;27.50;55.50
8093;DHT22;4089;52.420;13.334;2023-05-21T16:02:00;27.50;55.40
8093;DHT22;4089;52.420;13.334;2023-05-21T16:04:27;27.60;55.50
8093;DHT22;4089;52.420;13.334;2023-05-21T16:06:54;27.60;54.70
8093;DHT22;4089;52.420;13.334;2023-05-21T16:09:21;27.60;55.50
8093;DHT22;4089;52.420;13.334;2023-05-21T16:11:47;27.60;55.50
8093;DHT22;4089;52.420;13.334;2023-05-21T16:14:14;27.70;54.90
8093;DHT22;4089;52.420;13.334;2023-05-21T16:16:41;27.60;54.80